createdAt,value
2022-11-08T00:00:56.442Z,4.96
2022-11-08T00:03:25.608Z,4.95
2022-11-08T00:06:13.949Z,4.96
2022-11-08T00:09:02.557Z,4.98
2022-11-08T00:11:50.041Z,4.98
2022-11-08T00:14:19.546Z,4.97
2022-11-08T00:16:48.671Z,4.96
2022-11-08T00:19:19.473Z,4.95
2022-11-08T00:21:49.374Z,4.94
2022-11-08T00:24:18.446Z,4.92
2022-11-08T00:26:48.461Z,4.89
2022-11-08T00:29:17.787Z,4.84
2022-11-08T00:31:46.707Z,4.83
2022-11-08T00:34:17.173Z,4.80
2022-11-08T00:36:46.579Z,4.77
2022-11-08T00:39:15.233Z,4.76
2022-11-08T00:41:44.237Z,4.70
2022-11-08T00:44:13.810Z,4.68
2022-11-08T00:46:44.662Z,4.66
2022-11-08T00:49:13.613Z,4.64
2022-11-08T00:51:44.178Z,4.62
2022-11-08T00:54:16.219Z,4.61
2022-11-08T00:56:45.661Z,4.62
2022-11-08T00:59:16.037Z,4.60
2022-11-08T01:01:46.487Z,4.57
2022-11-08T01:04:16.604Z,4.55
2022-11-08T01:06:47.471Z,4.55
2022-11-08T01:09:16.238Z,4.53
2022-11-08T01:11:47.474Z,4.50
2022-11-08T01:14:16.746Z,4.47
2022-11-08T01:16:47.135Z,4.46
2022-11-08T01:19:16.653Z,4.45
2022-11-08T01:21:47.151Z,4.43
2022-11-08T01:24:15.858Z,4.44
2022-11-08T01:26:46.393Z,4.44
2022-11-08T01:29:15.507Z,4.42
2022-11-08T01:31:44.419Z,4.44
2022-11-08T01:34:13.491Z,4.44
2022-11-08T01:36:43.609Z,4.45
2022-11-08T01:39:13.514Z,4.45
2022-11-08T01:41:43.962Z,4.47
2022-11-08T01:44:17.323Z,4.49
2022-11-08T01:46:47.892Z,4.49
2022-11-08T01:49:34.091Z,4.49
2022-11-08T01:52:19.656Z,4.49
2022-11-08T01:55:06.374Z,4.52
2022-11-08T01:57:49.688Z,4.54
2022-11-08T02:00:18.355Z,4.54
2022-11-08T02:02:53.934Z,4.53
2022-11-08T02:05:27.025Z,4.53
2022-11-08T02:08:28.671Z,4.52
2022-11-08T02:10:59.359Z,4.51
2022-11-08T02:13:29.926Z,4.51
2022-11-08T02:15:58.683Z,4.52
2022-11-08T02:18:31.018Z,4.50
2022-11-08T02:21:24.575Z,4.48
2022-11-08T02:23:59.818Z,4.46
2022-11-08T02:26:31.988Z,4.46
2022-11-08T02:29:22.185Z,4.45
2022-11-08T02:31:51.313Z,4.43
2022-11-08T02:34:21.580Z,4.41
2022-11-08T02:36:52.114Z,4.42
2022-11-08T02:39:21.860Z,4.43
2022-11-08T02:41:51.368Z,4.45
2022-11-08T02:44:20.458Z,4.46
2022-11-08T02:46:49.636Z,4.48
2022-11-08T02:49:18.402Z,4.48
2022-11-08T02:51:47.201Z,4.47
2022-11-08T02:54:16.519Z,4.49
2022-11-08T02:56:46.492Z,4.50
2022-11-08T02:59:15.642Z,4.51
2022-11-08T03:01:45.534Z,4.51
2022-11-08T03:04:14.952Z,4.50
2022-11-08T03:06:45.596Z,4.48
2022-11-08T03:09:14.782Z,4.50
2022-11-08T03:11:44.168Z,4.53
2022-11-08T03:14:13.452Z,4.52
2022-11-08T03:16:43.385Z,4.54
2022-11-08T03:19:13.160Z,4.57
2022-11-08T03:21:43.352Z,4.58
2022-11-08T03:24:12.531Z,4.57
2022-11-08T03:26:41.300Z,4.57
2022-11-08T03:29:11.063Z,4.58
2022-11-08T03:31:40.750Z,4.59
2022-11-08T03:34:10.871Z,4.60
2022-11-08T03:36:39.728Z,4.62
2022-11-08T03:39:08.684Z,4.61
2022-11-08T03:41:37.714Z,4.62
2022-11-08T03:44:06.763Z,4.61
2022-11-08T03:46:37.470Z,4.65
2022-11-08T03:49:06.736Z,4.63
2022-11-08T03:51:35.990Z,4.67
2022-11-08T03:54:05.290Z,4.67
2022-11-08T03:56:35.889Z,4.69
2022-11-08T03:59:04.810Z,4.69
2022-11-08T04:01:33.856Z,4.68
2022-11-08T04:04:03.879Z,4.68
2022-11-08T04:06:32.977Z,4.70
2022-11-08T04:09:02.504Z,4.72
2022-11-08T04:11:49.952Z,4.73
2022-11-08T04:14:38.927Z,4.73
2022-11-08T04:17:09.487Z,4.73
2022-11-08T04:19:57.283Z,4.73
2022-11-08T04:22:26.295Z,4.70
2022-11-08T04:24:55.872Z,4.72
2022-11-08T04:27:24.409Z,4.70
2022-11-08T04:29:54.746Z,4.67
2022-11-08T04:32:23.563Z,4.69
2022-11-08T04:34:52.676Z,4.68
2022-11-08T04:37:23.633Z,4.67
2022-11-08T04:39:53.024Z,4.66
2022-11-08T04:42:22.303Z,4.66
2022-11-08T04:44:52.017Z,4.67
2022-11-08T04:47:21.000Z,4.68
2022-11-08T04:49:50.074Z,4.70
2022-11-08T04:52:18.956Z,4.67
2022-11-08T04:54:48.538Z,4.66
2022-11-08T04:57:18.649Z,4.68
2022-11-08T04:59:48.172Z,4.70
2022-11-08T05:02:17.186Z,4.72
2022-11-08T05:04:46.451Z,4.70
2022-11-08T05:07:15.655Z,4.68
2022-11-08T05:09:46.751Z,4.68
2022-11-08T05:12:18.090Z,4.68
2022-11-08T05:14:49.519Z,4.68
2022-11-08T05:17:19.595Z,4.64
2022-11-08T05:20:08.205Z,4.63
2022-11-08T05:22:56.428Z,4.60
2022-11-08T05:25:26.664Z,4.59
2022-11-08T05:27:56.449Z,4.57
2022-11-08T05:30:25.723Z,4.57
2022-11-08T05:32:56.787Z,4.56
2022-11-08T05:35:26.648Z,4.57
2022-11-08T05:37:56.319Z,4.57
2022-11-08T05:40:29.424Z,4.57
2022-11-08T05:42:57.397Z,4.53
2022-11-08T05:45:26.377Z,4.53
2022-11-08T05:47:59.223Z,4.54
2022-11-08T05:50:28.992Z,4.58
2022-11-08T05:52:59.939Z,4.62
2022-11-08T05:55:30.255Z,4.64
2022-11-08T05:57:59.453Z,4.65
2022-11-08T06:00:29.653Z,4.68
2022-11-08T06:02:58.890Z,4.70
2022-11-08T06:05:28.729Z,4.73
2022-11-08T06:07:57.487Z,4.76
2022-11-08T06:10:27.023Z,4.80
2022-11-08T06:13:01.611Z,4.81
2022-11-08T06:15:31.215Z,4.81
2022-11-08T06:18:04.540Z,4.76
2022-11-08T06:20:33.479Z,4.77
2022-11-08T06:23:02.727Z,4.80
2022-11-08T06:25:31.928Z,4.83
2022-11-08T06:28:01.813Z,4.84
2022-11-08T06:30:30.938Z,4.84
2022-11-08T06:33:00.324Z,4.85
2022-11-08T06:35:30.212Z,4.88
2022-11-08T06:38:01.364Z,4.89
2022-11-08T06:40:33.140Z,4.90
2022-11-08T06:43:02.633Z,4.91
2022-11-08T06:45:33.146Z,4.94
2022-11-08T06:48:03.979Z,4.93
2022-11-08T06:50:34.070Z,4.95
2022-11-08T06:53:07.070Z,4.96
2022-11-08T06:55:38.422Z,4.97
2022-11-08T06:58:07.252Z,4.99
2022-11-08T07:00:36.971Z,5.01
2022-11-08T07:03:06.914Z,5.02
2022-11-08T07:05:37.383Z,5.02
2022-11-08T07:08:06.714Z,5.05
2022-11-08T07:10:36.633Z,5.06
2022-11-08T07:13:10.292Z,5.08
2022-11-08T07:15:41.463Z,5.12
2022-11-08T07:18:13.124Z,5.15
2022-11-08T07:20:43.349Z,5.17
2022-11-08T07:23:13.147Z,5.22
2022-11-08T07:25:46.620Z,5.25
2022-11-08T07:28:18.301Z,5.30
2022-11-08T07:30:48.422Z,5.35
2022-11-08T07:33:18.928Z,5.37
2022-11-08T07:35:49.919Z,5.40
2022-11-08T07:38:19.985Z,5.43
2022-11-08T07:40:51.715Z,5.46
2022-11-08T07:43:21.264Z,5.50
2022-11-08T07:45:56.505Z,5.54
2022-11-08T07:48:25.630Z,5.56
2022-11-08T07:50:55.081Z,5.58
2022-11-08T07:53:24.584Z,5.57
2022-11-08T07:55:55.010Z,5.58
2022-11-08T07:58:24.513Z,5.57
2022-11-08T08:00:53.965Z,5.62
2022-11-08T08:03:23.658Z,5.64
2022-11-08T08:05:59.483Z,5.63
2022-11-08T08:08:26.121Z,5.68
2022-11-08T08:11:02.527Z,5.68
2022-11-08T08:13:32.519Z,5.71
2022-11-08T08:16:02.527Z,5.76
2022-11-08T08:18:33.065Z,5.76
2022-11-08T08:21:02.248Z,5.76
2022-11-08T08:23:33.061Z,5.79
2022-11-08T08:26:03.162Z,5.83
2022-11-08T08:28:31.856Z,5.89
2022-11-08T08:31:01.426Z,5.91
2022-11-08T08:33:30.811Z,5.93
2022-11-08T08:36:01.621Z,5.95
2022-11-08T08:38:32.493Z,5.99
2022-11-08T08:41:01.699Z,6.02
2022-11-08T08:43:34.118Z,6.03
2022-11-08T08:46:05.260Z,6.07
2022-11-08T08:48:35.715Z,6.11
2022-11-08T08:51:04.915Z,6.14
2022-11-08T08:53:34.168Z,6.13
2022-11-08T08:56:07.299Z,6.12
2022-11-08T08:58:40.582Z,6.14
2022-11-08T09:03:45.158Z,6.14
2022-11-08T09:06:14.322Z,6.22
2022-11-08T09:08:44.552Z,6.29
2022-11-08T09:11:13.174Z,6.29
2022-11-08T09:13:42.332Z,6.30
2022-11-08T09:16:13.220Z,6.31
2022-11-08T09:18:41.854Z,6.27
2022-11-08T09:21:12.309Z,6.26
2022-11-08T09:23:42.147Z,6.30
2022-11-08T09:26:12.199Z,6.32
2022-11-08T09:28:41.025Z,6.35
2022-11-08T09:31:11.552Z,6.36
2022-11-08T09:33:41.698Z,6.39
2022-11-08T09:36:13.421Z,6.42
2022-11-08T09:38:42.590Z,6.46
2022-11-08T09:41:31.083Z,6.48
2022-11-08T09:44:23.014Z,6.54
2022-11-08T09:47:15.149Z,6.63
2022-11-08T09:50:24.680Z,6.71
2022-11-08T09:53:19.349Z,6.78
2022-11-08T09:56:15.422Z,6.85
2022-11-08T09:58:49.563Z,6.93
2022-11-08T10:01:19.558Z,6.99
2022-11-08T10:03:51.740Z,7.01
2022-11-08T10:07:03.209Z,7.08
2022-11-08T10:09:56.474Z,7.12
2022-11-08T10:12:43.852Z,7.13
2022-11-08T10:15:22.160Z,7.14
2022-11-08T10:18:20.487Z,7.16
2022-11-08T10:21:04.679Z,7.20
2022-11-08T10:23:44.500Z,7.26
2022-11-08T10:26:25.732Z,7.29
2022-11-08T10:29:08.521Z,7.33
2022-11-08T10:31:38.288Z,7.39
2022-11-08T10:34:15.412Z,7.43
2022-11-08T10:36:49.144Z,7.48
2022-11-08T10:39:27.808Z,7.54
2022-11-08T10:42:04.339Z,7.59
2022-11-08T10:44:34.908Z,7.65
2022-11-08T10:47:06.484Z,7.70
2022-11-08T10:49:38.948Z,7.76
2022-11-08T10:52:21.671Z,7.82
2022-11-08T10:55:01.179Z,7.85
2022-11-08T10:57:47.941Z,7.88
2022-11-08T11:00:29.691Z,7.91
2022-11-08T11:03:08.371Z,7.94
2022-11-08T11:05:44.408Z,8.00
2022-11-08T11:08:15.396Z,8.07
2022-11-08T11:10:46.618Z,8.14
2022-11-08T11:16:04.138Z,8.23
2022-11-08T11:18:48.159Z,8.28
2022-11-08T11:21:22.712Z,8.32
2022-11-08T11:24:00.190Z,8.37
2022-11-08T11:26:34.148Z,8.41
2022-11-08T11:29:17.157Z,8.42
2022-11-08T11:31:49.298Z,8.43
2022-11-08T11:34:23.373Z,8.47
2022-11-08T11:37:13.393Z,8.54
2022-11-08T11:40:12.273Z,8.58
2022-11-08T11:43:12.382Z,8.65
2022-11-08T11:46:00.503Z,8.69
2022-11-08T11:48:32.153Z,8.74
2022-11-08T11:51:03.567Z,8.76
2022-11-08T11:53:40.243Z,8.78
2022-11-08T11:56:44.697Z,8.81
2022-11-08T11:59:46.407Z,8.86
2022-11-08T12:02:51.328Z,8.90
2022-11-08T12:06:05.803Z,8.92
2022-11-08T12:09:02.288Z,8.92
2022-11-08T12:11:39.202Z,8.94
2022-11-08T12:14:45.051Z,8.96
2022-11-08T12:17:53.110Z,8.98
2022-11-08T12:20:55.402Z,9.00
2022-11-08T12:23:53.929Z,9.04
2022-11-08T12:26:58.445Z,9.11
2022-11-08T12:29:47.700Z,9.13
2022-11-08T12:32:24.867Z,9.14
2022-11-08T12:35:00.210Z,9.17
2022-11-08T12:37:55.629Z,9.18
2022-11-08T12:40:46.729Z,9.17
2022-11-08T12:43:38.773Z,9.18
2022-11-08T12:46:18.332Z,9.19
2022-11-08T12:49:10.192Z,9.19
2022-11-08T12:51:52.972Z,9.20
2022-11-08T12:54:41.576Z,9.19
2022-11-08T12:57:13.345Z,9.18
2022-11-08T13:00:09.917Z,9.18
2022-11-08T13:02:42.327Z,9.19
2022-11-08T13:05:30.790Z,9.19
2022-11-08T13:08:16.814Z,9.19
2022-11-08T13:10:52.062Z,9.20
2022-11-08T13:13:52.742Z,9.21
2022-11-08T13:16:28.450Z,9.20
2022-11-08T13:18:58.570Z,9.17
2022-11-08T13:21:44.855Z,9.16
2022-11-08T13:31:02.651Z,9.13
2022-11-08T13:33:32.389Z,9.13
2022-11-08T13:36:30.059Z,9.14
2022-11-08T13:39:30.560Z,9.14
2022-11-08T13:42:26.722Z,9.14
2022-11-08T13:55:59.704Z,9.07
2022-11-08T13:58:35.875Z,9.00
2022-11-08T14:01:09.360Z,8.99
2022-11-08T14:03:55.347Z,8.99
2022-11-08T14:06:56.040Z,8.98
2022-11-08T14:09:57.044Z,8.97
2022-11-08T14:12:57.974Z,8.96
2022-11-08T14:15:37.964Z,8.94
2022-11-08T14:18:30.835Z,8.92
2022-11-08T14:21:08.537Z,8.93
2022-11-08T14:23:48.447Z,8.93
2022-11-08T14:26:23.106Z,8.91
2022-11-08T14:28:54.410Z,8.86
2022-11-08T14:31:33.125Z,8.85
2022-11-08T14:34:02.707Z,8.82
2022-11-08T14:36:32.873Z,8.82
2022-11-08T14:39:17.783Z,8.82
2022-11-08T14:41:48.833Z,8.78
2022-11-08T14:44:19.858Z,8.75
2022-11-08T14:46:49.397Z,8.74
2022-11-08T14:49:36.314Z,8.74
2022-11-08T14:52:14.965Z,8.74
2022-11-08T14:54:46.717Z,8.74
2022-11-08T14:57:38.244Z,8.73
2022-11-08T15:00:20.848Z,8.71
2022-11-08T15:03:06.984Z,8.69
2022-11-08T15:05:47.455Z,8.69
2022-11-08T15:08:34.613Z,8.69
2022-11-08T15:11:07.944Z,8.70
2022-11-08T15:13:48.540Z,8.69
2022-11-08T15:16:18.616Z,8.68
2022-11-08T15:18:47.960Z,8.66
2022-11-08T15:21:58.160Z,8.65
2022-11-08T15:24:46.958Z,8.64
2022-11-08T15:27:25.337Z,8.61
2022-11-08T15:30:13.655Z,8.62
2022-11-08T15:32:45.708Z,8.63
2022-11-08T15:35:34.198Z,8.65
2022-11-08T15:38:09.576Z,8.68
2022-11-08T15:40:45.048Z,8.70
2022-11-08T15:43:35.094Z,8.72
2022-11-08T15:46:05.878Z,8.72
2022-11-08T15:48:41.809Z,8.68
2022-11-08T15:51:17.043Z,8.67
2022-11-08T15:53:48.850Z,8.66
2022-11-08T15:56:17.744Z,8.66
2022-11-08T15:58:47.083Z,8.66
2022-11-08T16:01:20.601Z,8.67
2022-11-08T16:03:49.943Z,8.68
2022-11-08T16:06:20.336Z,8.69
2022-11-08T16:08:49.334Z,8.69
2022-11-08T16:11:34.154Z,8.70
2022-11-08T16:14:19.860Z,8.71
2022-11-08T16:16:49.900Z,8.71
2022-11-08T16:19:23.350Z,8.66
2022-11-08T16:21:53.287Z,8.65
2022-11-08T16:24:35.020Z,8.65
2022-11-08T16:27:11.831Z,8.65
2022-11-08T16:29:42.717Z,8.63
2022-11-08T16:32:26.268Z,8.61
2022-11-08T16:35:13.652Z,8.57
2022-11-08T16:37:46.095Z,8.55
2022-11-08T16:40:36.177Z,8.53
2022-11-08T16:43:16.398Z,8.52
2022-11-08T16:48:18.622Z,8.49
2022-11-08T16:50:47.973Z,8.47
2022-11-08T16:53:19.341Z,8.44
2022-11-08T16:55:48.102Z,8.42
2022-11-08T16:58:17.179Z,8.35
2022-11-08T17:00:46.264Z,8.32
2022-11-08T17:03:21.255Z,8.30
2022-11-08T17:05:50.795Z,8.28
2022-11-08T17:08:20.812Z,8.26
2022-11-08T17:10:50.142Z,8.21
2022-11-08T17:13:21.265Z,8.15
2022-11-08T17:15:51.098Z,8.10
2022-11-08T17:18:21.556Z,8.04
2022-11-08T17:20:53.608Z,7.99
2022-11-08T17:23:23.464Z,7.96
2022-11-08T17:25:52.584Z,7.89
2022-11-08T17:28:21.669Z,7.75
2022-11-08T17:30:51.285Z,7.63
2022-11-08T17:33:20.747Z,7.54
2022-11-08T17:35:50.380Z,7.46
2022-11-08T17:38:20.491Z,7.42
2022-11-08T17:40:50.292Z,7.38
2022-11-08T17:43:20.786Z,7.35
2022-11-08T17:45:51.658Z,7.30
2022-11-08T17:48:20.273Z,7.24
2022-11-08T17:50:48.874Z,7.17
2022-11-08T17:53:18.025Z,7.11
2022-11-08T17:56:01.065Z,7.04
2022-11-08T17:58:32.499Z,6.98
2022-11-08T18:01:04.893Z,6.95
2022-11-08T18:03:35.412Z,6.92
2022-11-08T18:06:09.607Z,6.89
2022-11-08T18:08:38.149Z,6.88
2022-11-08T18:11:08.454Z,6.90
2022-11-08T18:13:38.054Z,6.87
2022-11-08T18:16:14.534Z,6.84
2022-11-08T18:18:46.833Z,6.81
2022-11-08T18:21:17.292Z,6.79
2022-11-08T18:23:47.588Z,6.76
2022-11-08T18:26:17.156Z,6.75
2022-11-08T18:28:45.744Z,6.74
2022-11-08T18:31:17.136Z,6.73
2022-11-08T18:33:47.318Z,6.71
2022-11-08T18:36:21.496Z,6.70
2022-11-08T18:38:52.073Z,6.67
2022-11-08T18:41:24.954Z,6.68
2022-11-08T18:43:54.142Z,6.69
2022-11-08T18:46:24.889Z,6.72
2022-11-08T18:48:54.062Z,6.68
2022-11-08T18:51:23.901Z,6.65
2022-11-08T18:53:53.061Z,6.58
2022-11-08T18:56:22.793Z,6.50
2022-11-08T18:58:51.517Z,6.43
2022-11-08T19:01:20.478Z,6.41
2022-11-08T19:03:49.397Z,6.41
2022-11-08T19:06:20.506Z,6.38
2022-11-08T19:08:49.228Z,6.38
2022-11-08T19:11:19.905Z,6.34
2022-11-08T19:13:49.953Z,6.34
2022-11-08T19:16:19.864Z,6.34
2022-11-08T19:18:51.596Z,6.33
2022-11-08T19:21:23.859Z,6.27
2022-11-08T19:23:55.111Z,6.22
2022-11-08T19:26:25.219Z,6.20
2022-11-08T19:28:54.813Z,6.17
2022-11-08T19:31:24.749Z,6.18
2022-11-08T19:33:53.960Z,6.19
2022-11-08T19:36:25.048Z,6.18
2022-11-08T19:38:55.132Z,6.12
2022-11-08T19:41:26.867Z,6.08
2022-11-08T19:43:56.678Z,6.03
2022-11-08T19:46:29.378Z,6.00
2022-11-08T19:49:00.410Z,5.99
2022-11-08T19:51:33.031Z,5.96
2022-11-08T19:54:07.740Z,5.94
2022-11-08T19:57:03.680Z,5.92
2022-11-08T19:59:08.720Z,5.93
2022-11-08T20:01:39.596Z,5.96
2022-11-08T20:04:10.617Z,5.93
2022-11-08T20:06:40.181Z,5.88
2022-11-08T20:09:09.648Z,5.83
2022-11-08T20:11:43.019Z,5.81
2022-11-08T20:14:13.132Z,5.76
2022-11-08T20:16:43.214Z,5.71
2022-11-08T20:19:16.248Z,5.68
2022-11-08T20:21:45.907Z,5.65
2022-11-08T20:24:15.054Z,5.64
2022-11-08T20:26:45.524Z,5.62
2022-11-08T20:29:14.516Z,5.62
2022-11-08T20:31:44.921Z,5.62
2022-11-08T20:34:13.871Z,5.64
2022-11-08T20:36:45.124Z,5.63
2022-11-08T20:39:15.307Z,5.62
2022-11-08T20:41:45.071Z,5.56
2022-11-08T20:44:14.916Z,5.51
2022-11-08T20:46:44.177Z,5.45
2022-11-08T20:49:13.491Z,5.44
2022-11-08T20:51:42.373Z,5.43
2022-11-08T20:54:11.798Z,5.44
2022-11-08T20:56:42.521Z,5.42
2022-11-08T20:59:12.137Z,5.39
2022-11-08T21:01:42.235Z,5.38
2022-11-08T21:04:11.057Z,5.34
2022-11-08T21:06:41.305Z,5.32
2022-11-08T21:09:34.437Z,5.34
2022-11-08T21:11:43.911Z,5.31
2022-11-08T21:14:12.790Z,5.28
2022-11-08T21:17:14.735Z,5.26
2022-11-08T21:19:16.966Z,5.24
2022-11-08T21:21:48.448Z,5.23
2022-11-08T21:24:19.072Z,5.21
2022-11-08T21:26:48.400Z,5.17
2022-11-08T21:29:17.314Z,5.15
2022-11-08T21:31:47.274Z,5.08
2022-11-08T21:34:16.897Z,5.04
2022-11-08T21:36:45.629Z,5.05
2022-11-08T21:39:14.253Z,5.07
2022-11-08T21:41:43.581Z,5.08
2022-11-08T21:44:12.060Z,5.05
2022-11-08T21:46:40.681Z,5.01
2022-11-08T21:49:12.099Z,4.97
2022-11-08T21:51:40.765Z,4.93
2022-11-08T21:54:10.716Z,4.89
2022-11-08T21:56:39.524Z,4.91
2022-11-08T21:59:10.887Z,4.90
2022-11-08T22:01:39.679Z,4.91
2022-11-08T22:04:08.659Z,4.91
2022-11-08T22:06:41.436Z,4.90
2022-11-08T22:09:10.277Z,4.86
2022-11-08T22:11:39.333Z,4.80
2022-11-08T22:14:09.867Z,4.73
2022-11-08T22:16:40.555Z,4.66
2022-11-08T22:19:11.602Z,4.63
2022-11-08T22:21:42.921Z,4.61
2022-11-08T22:24:17.495Z,4.60
2022-11-08T22:26:47.810Z,4.51
2022-11-08T22:29:18.314Z,4.48
2022-11-08T22:31:47.601Z,4.49
2022-11-08T22:34:17.783Z,4.47
2022-11-08T22:36:47.658Z,4.46
2022-11-08T22:39:20.411Z,4.45
2022-11-08T22:41:51.632Z,4.46
2022-11-08T22:44:22.204Z,4.45
2022-11-08T22:46:50.958Z,4.46
2022-11-08T22:49:19.660Z,4.45
2022-11-08T22:51:48.632Z,4.42
2022-11-08T22:54:17.182Z,4.44
2022-11-08T22:56:45.972Z,4.44
2022-11-08T22:59:14.694Z,4.41
2022-11-08T23:01:43.251Z,4.37
2022-11-08T23:04:12.042Z,4.34
2022-11-08T23:06:42.401Z,4.30
2022-11-08T23:09:11.206Z,4.27
2022-11-08T23:11:58.201Z,4.27
2022-11-08T23:14:45.157Z,4.27
2022-11-08T23:17:14.183Z,4.27
2022-11-08T23:20:01.392Z,4.24
2022-11-08T23:22:51.821Z,4.23
2022-11-08T23:25:20.803Z,4.22
2022-11-08T23:28:09.652Z,4.22
2022-11-08T23:30:58.774Z,4.24
2022-11-08T23:33:27.162Z,4.26
2022-11-08T23:36:11.126Z,4.27
2022-11-08T23:38:41.274Z,4.21
2022-11-08T23:41:29.044Z,4.16
2022-11-08T23:44:18.346Z,4.12
2022-11-08T23:46:47.312Z,4.12
2022-11-08T23:49:16.143Z,4.13
2022-11-08T23:51:45.240Z,4.16
2022-11-08T23:54:15.346Z,4.14
2022-11-08T23:56:44.695Z,4.14
2022-11-08T23:59:15.670Z,4.17
